createdAt,value
2024-03-11T00:00:47.776Z,5.97
2024-03-11T00:03:36.360Z,7.10
2024-03-11T00:06:04.091Z,7.93
2024-03-11T00:08:33.230Z,8.18
2024-03-11T00:11:06.163Z,7.05
2024-03-11T00:13:34.285Z,7.53
2024-03-11T00:16:02.530Z,7.75
2024-03-11T00:18:30.855Z,7.13
2024-03-11T00:20:58.504Z,6.57
2024-03-11T00:23:27.239Z,7.47
2024-03-11T00:25:54.298Z,8.50
2024-03-11T00:28:21.763Z,7.57
2024-03-11T00:30:48.822Z,7.97
2024-03-11T00:33:19.004Z,7.97
2024-03-11T00:35:47.884Z,8.35
2024-03-11T00:40:42.423Z,6.80
2024-03-11T00:43:09.858Z,8.85
2024-03-11T00:45:40.927Z,7.10
2024-03-11T00:48:13.168Z,7.25
2024-03-11T00:50:41.219Z,8.43
2024-03-11T00:53:08.851Z,7.40
2024-03-11T00:55:35.890Z,7.28
2024-03-11T00:58:03.264Z,7.40
2024-03-11T01:00:32.255Z,7.95
2024-03-11T01:03:02.626Z,6.32
2024-03-11T01:05:32.954Z,8.05
2024-03-11T01:08:00.394Z,7.72
2024-03-11T01:10:28.479Z,7.07
2024-03-11T01:12:57.453Z,7.57
2024-03-11T01:15:25.515Z,7.22
2024-03-11T01:17:53.097Z,7.50
2024-03-11T01:20:22.185Z,8.10
2024-03-11T01:22:50.621Z,7.78
2024-03-11T01:25:21.421Z,7.80
2024-03-11T01:27:50.057Z,8.48
2024-03-11T01:30:17.018Z,7.15
2024-03-11T01:32:46.498Z,7.75
2024-03-11T01:35:15.153Z,8.82
2024-03-11T01:37:45.129Z,8.57
2024-03-11T01:40:15.543Z,8.38
2024-03-11T01:42:44.549Z,7.78
2024-03-11T01:45:15.711Z,8.00
2024-03-11T01:47:44.778Z,8.15
2024-03-11T01:50:15.706Z,7.85
2024-03-11T01:53:04.751Z,7.82
2024-03-11T01:55:32.930Z,7.90
2024-03-11T01:58:02.456Z,8.25
2024-03-11T02:00:30.397Z,9.20
2024-03-11T02:02:58.178Z,7.90
2024-03-11T02:05:27.539Z,7.65
2024-03-11T02:08:01.148Z,7.60
2024-03-11T02:10:29.340Z,7.53
2024-03-11T02:13:00.663Z,7.40
2024-03-11T02:15:28.589Z,7.45
2024-03-11T02:17:56.225Z,9.38
2024-03-11T02:20:23.769Z,8.13
2024-03-11T02:22:57.305Z,8.20
2024-03-11T02:25:30.104Z,8.20
2024-03-11T02:28:02.333Z,8.85
2024-03-11T02:30:29.636Z,8.63
2024-03-11T02:32:58.101Z,8.70
2024-03-11T02:35:25.747Z,7.95
2024-03-11T02:37:54.206Z,8.90
2024-03-11T02:42:56.020Z,8.20
2024-03-11T02:45:27.262Z,9.65
2024-03-11T02:47:55.110Z,7.65
2024-03-11T02:50:22.679Z,9.40
2024-03-11T02:52:50.100Z,10.07
2024-03-11T02:55:20.018Z,7.70
2024-03-11T02:57:50.501Z,9.50
2024-03-11T03:00:18.912Z,8.05
2024-03-11T03:02:50.962Z,7.75
2024-03-11T03:05:19.082Z,7.88
2024-03-11T03:07:48.105Z,8.32
2024-03-11T03:10:15.418Z,7.88
2024-03-11T03:12:45.984Z,8.48
2024-03-11T03:15:13.874Z,8.43
2024-03-11T03:17:41.538Z,8.07
2024-03-11T03:20:12.535Z,6.55
2024-03-11T03:22:40.141Z,8.38
2024-03-11T03:25:07.749Z,8.50
2024-03-11T03:27:36.435Z,7.25
2024-03-11T03:30:06.718Z,7.88
2024-03-11T03:32:34.716Z,7.00
2024-03-11T03:35:02.017Z,7.43
2024-03-11T03:37:29.547Z,8.00
2024-03-11T03:39:56.769Z,5.10
2024-03-11T03:42:24.685Z,6.78
2024-03-11T03:44:52.801Z,6.68
2024-03-11T03:47:22.522Z,8.43
2024-03-11T03:49:49.943Z,8.55
2024-03-11T03:52:17.414Z,9.98
2024-03-11T03:54:44.369Z,8.75
2024-03-11T03:57:11.906Z,6.63
2024-03-11T03:59:39.107Z,5.75
2024-03-11T04:02:09.150Z,5.57
2024-03-11T04:04:40.848Z,4.63
2024-03-11T04:07:08.861Z,7.88
2024-03-11T04:09:36.532Z,6.60
2024-03-11T04:12:05.050Z,8.73
2024-03-11T04:14:32.397Z,6.95
2024-03-11T04:17:00.040Z,6.88
2024-03-11T04:19:27.546Z,7.93
2024-03-11T04:21:54.920Z,9.18
2024-03-11T04:24:27.252Z,7.55
2024-03-11T04:26:54.931Z,7.80
2024-03-11T04:29:22.077Z,8.98
2024-03-11T04:31:49.670Z,10.73
2024-03-11T04:34:16.968Z,8.43
2024-03-11T04:36:44.362Z,6.57
2024-03-11T04:39:15.596Z,8.00
2024-03-11T04:41:50.661Z,5.45
2024-03-11T04:44:19.194Z,5.10
2024-03-11T04:46:47.733Z,7.30
2024-03-11T04:49:16.262Z,7.97
2024-03-11T04:51:43.978Z,5.28
2024-03-11T04:54:12.824Z,9.55
2024-03-11T04:56:40.287Z,6.53
2024-03-11T04:59:09.635Z,8.15
2024-03-11T05:01:37.520Z,7.18
2024-03-11T05:06:48.542Z,7.45
2024-03-11T05:09:17.469Z,9.02
2024-03-11T05:11:45.127Z,6.18
2024-03-11T05:14:16.861Z,7.40
2024-03-11T05:16:46.068Z,10.27
2024-03-11T05:19:18.620Z,11.05
2024-03-11T05:21:46.283Z,6.72
2024-03-11T05:24:25.933Z,6.55
2024-03-11T05:27:08.027Z,5.05
2024-03-11T05:29:36.357Z,5.90
2024-03-11T05:32:04.440Z,7.00
2024-03-11T05:34:31.840Z,7.82
2024-03-11T05:36:59.313Z,8.05
2024-03-11T05:39:26.987Z,6.90
2024-03-11T05:42:02.324Z,8.32
2024-03-11T05:44:30.913Z,7.60
2024-03-11T05:46:58.397Z,12.13
2024-03-11T05:49:27.951Z,8.00
2024-03-11T05:54:25.485Z,5.55
2024-03-11T05:56:57.744Z,8.73
2024-03-11T05:59:25.466Z,8.50
2024-03-11T06:01:57.060Z,8.60
2024-03-11T06:04:28.820Z,9.80
2024-03-11T06:06:55.968Z,9.43
2024-03-11T06:09:23.374Z,12.63
2024-03-11T06:11:51.420Z,9.57
2024-03-11T06:14:19.322Z,9.88
2024-03-11T06:16:48.482Z,13.48
2024-03-11T06:19:21.393Z,11.85
2024-03-11T06:21:49.975Z,9.13
2024-03-11T06:24:18.721Z,12.25
2024-03-11T06:26:47.625Z,10.80
2024-03-11T06:29:17.952Z,11.63
2024-03-11T06:31:47.494Z,11.00
2024-03-11T06:34:17.091Z,8.10
2024-03-11T06:39:11.758Z,10.32
2024-03-11T06:41:44.744Z,10.15
2024-03-11T06:44:17.820Z,7.60
2024-03-11T06:46:49.384Z,11.43
2024-03-11T06:49:18.141Z,12.70
2024-03-11T06:51:45.356Z,16.27
2024-03-11T06:54:12.778Z,13.15
2024-03-11T06:56:39.920Z,8.60
2024-03-11T06:59:07.375Z,10.05
2024-03-11T07:01:34.741Z,7.10
2024-03-11T07:04:02.614Z,11.85
2024-03-11T07:06:30.609Z,11.15
2024-03-11T07:09:02.148Z,9.15
2024-03-11T07:11:29.591Z,9.65
2024-03-11T07:13:57.358Z,13.60
2024-03-11T07:16:25.336Z,9.20
2024-03-11T07:18:56.385Z,15.18
2024-03-11T07:21:29.360Z,10.35
2024-03-11T07:23:57.468Z,13.18
2024-03-11T07:26:25.093Z,10.98
2024-03-11T07:28:56.668Z,13.02
2024-03-11T07:34:11.546Z,10.32
2024-03-11T07:36:39.477Z,9.07
2024-03-11T07:39:07.517Z,11.43
2024-03-11T07:41:36.646Z,12.93
2024-03-11T07:44:08.100Z,12.52
2024-03-11T07:46:37.091Z,12.25
2024-03-11T07:49:07.583Z,12.23
2024-03-11T07:51:35.754Z,13.15
2024-03-11T07:54:06.570Z,11.82
2024-03-11T07:56:33.612Z,9.55
2024-03-11T07:59:03.023Z,11.48
2024-03-11T08:01:34.199Z,11.40
2024-03-11T08:04:02.012Z,6.88
2024-03-11T08:06:31.859Z,11.95
2024-03-11T08:08:59.567Z,13.52
2024-03-11T08:11:27.314Z,13.32
2024-03-11T08:13:54.888Z,11.32
2024-03-11T08:16:23.167Z,11.80
2024-03-11T08:18:50.591Z,12.00
2024-03-11T08:24:16.742Z,8.65
2024-03-11T08:26:46.450Z,12.30
2024-03-11T08:29:13.768Z,10.13
2024-03-11T08:31:41.188Z,10.93
2024-03-11T08:34:17.416Z,7.90
2024-03-11T08:36:45.757Z,9.90
2024-03-11T08:39:13.038Z,9.10
2024-03-11T08:41:50.798Z,11.38
2024-03-11T08:44:19.782Z,14.65
2024-03-11T08:46:48.839Z,8.43
2024-03-11T08:49:16.597Z,13.25
2024-03-11T08:51:44.089Z,11.32
2024-03-11T08:54:11.242Z,10.32
2024-03-11T08:56:41.059Z,10.68
2024-03-11T08:59:17.131Z,10.70
2024-03-11T09:01:46.083Z,10.90
2024-03-11T09:04:13.242Z,11.52
2024-03-11T09:06:45.077Z,13.15
2024-03-11T09:09:26.421Z,11.15
2024-03-11T09:11:58.247Z,9.65
2024-03-11T09:15:20.278Z,10.57
2024-03-11T09:21:05.035Z,12.63
2024-03-11T09:23:39.827Z,13.20
2024-03-11T09:26:14.582Z,10.05
2024-03-11T09:29:29.721Z,11.60
2024-03-11T09:32:11.713Z,12.85
2024-03-11T09:34:56.111Z,9.85
2024-03-11T09:37:43.174Z,15.52
2024-03-11T09:40:16.848Z,15.60
2024-03-11T09:42:52.575Z,14.05
2024-03-11T09:48:12.954Z,12.65
2024-03-11T09:50:43.437Z,11.95
2024-03-11T09:53:20.425Z,10.18
2024-03-11T09:55:49.202Z,10.35
2024-03-11T09:58:20.689Z,11.35
2024-03-11T10:00:59.453Z,9.75
2024-03-11T10:03:29.672Z,11.48
2024-03-11T10:08:44.665Z,13.65
2024-03-11T10:11:35.738Z,12.93
2024-03-11T10:17:31.207Z,11.98
2024-03-11T10:20:01.345Z,11.38
2024-03-11T10:22:32.728Z,8.27
2024-03-11T10:24:59.954Z,9.60
2024-03-11T10:27:41.179Z,8.27
2024-03-11T10:30:26.378Z,8.45
2024-03-11T10:32:57.158Z,11.05
2024-03-11T10:35:28.161Z,10.85
2024-03-11T10:38:12.267Z,8.13
2024-03-11T10:40:40.086Z,7.53
2024-03-11T10:43:30.043Z,11.30
2024-03-11T10:46:00.326Z,7.88
2024-03-11T10:48:30.843Z,13.73
2024-03-11T10:50:59.245Z,11.75
2024-03-11T10:53:27.385Z,7.93
2024-03-11T10:55:58.435Z,9.63
2024-03-11T10:58:30.111Z,10.00
2024-03-11T11:01:02.340Z,10.90
2024-03-11T11:03:33.582Z,8.98
2024-03-11T11:06:04.942Z,8.48
2024-03-11T11:08:38.760Z,10.15
2024-03-11T11:11:07.994Z,11.38
2024-03-11T11:13:38.236Z,8.52
2024-03-11T11:16:08.847Z,6.47
2024-03-11T11:18:40.888Z,9.68
2024-03-11T11:21:34.252Z,9.70
2024-03-11T11:24:58.010Z,8.27
2024-03-11T11:27:26.135Z,7.95
2024-03-11T11:29:55.334Z,7.65
2024-03-11T11:32:31.916Z,8.27
2024-03-11T11:35:00.719Z,7.90
2024-03-11T11:37:35.487Z,9.75
2024-03-11T11:40:33.220Z,9.95
2024-03-11T11:43:01.302Z,12.00
2024-03-11T11:45:57.440Z,8.23
2024-03-11T11:48:28.103Z,8.60
2024-03-11T11:51:00.576Z,11.38
2024-03-11T11:53:45.645Z,10.63
2024-03-11T11:56:32.440Z,9.77
2024-03-11T11:59:06.296Z,10.32
2024-03-11T12:01:47.422Z,8.65
2024-03-11T12:04:18.871Z,10.18
2024-03-11T12:06:53.116Z,11.57
2024-03-11T12:09:21.284Z,7.20
2024-03-11T12:11:50.505Z,8.55
2024-03-11T12:14:18.320Z,8.48
2024-03-11T12:16:45.956Z,7.30
2024-03-11T12:19:13.184Z,8.23
2024-03-11T12:21:42.776Z,8.82
2024-03-11T12:24:14.077Z,11.25
2024-03-11T12:26:46.957Z,12.05
2024-03-11T12:29:15.580Z,6.60
2024-03-11T12:31:55.290Z,8.60
2024-03-11T12:34:26.100Z,10.10
2024-03-11T12:36:56.148Z,9.50
2024-03-11T12:39:35.522Z,7.45
2024-03-11T12:42:03.250Z,9.02
2024-03-11T12:44:33.337Z,8.75
2024-03-11T12:47:02.725Z,8.23
2024-03-11T12:49:30.852Z,9.93
2024-03-11T12:52:10.147Z,9.30
2024-03-11T12:54:40.101Z,9.77
2024-03-11T12:57:13.636Z,8.30
2024-03-11T13:00:01.453Z,9.77
2024-03-11T13:02:29.495Z,8.52
2024-03-11T13:05:11.868Z,8.15
2024-03-11T13:07:40.424Z,9.38
2024-03-11T13:13:21.428Z,9.10
2024-03-11T13:15:51.610Z,9.70
2024-03-11T13:18:20.104Z,9.55
2024-03-11T13:20:52.161Z,8.27
2024-03-11T13:26:11.784Z,8.60
2024-03-11T13:28:43.009Z,6.65
2024-03-11T13:31:15.003Z,7.75
2024-03-11T13:36:31.267Z,9.32
2024-03-11T13:39:01.597Z,9.02
2024-03-11T13:41:30.791Z,8.85
2024-03-11T13:44:01.210Z,7.20
2024-03-11T13:46:29.036Z,11.32
2024-03-11T13:48:56.675Z,9.18
2024-03-11T13:51:27.894Z,11.63
2024-03-11T13:53:55.833Z,6.03
2024-03-11T13:56:26.644Z,7.88
2024-03-11T13:58:54.752Z,9.35
2024-03-11T14:01:26.074Z,7.72
2024-03-11T14:03:53.914Z,7.63
2024-03-11T14:06:21.884Z,6.63
2024-03-11T14:08:49.471Z,8.40
2024-03-11T14:11:19.763Z,9.45
2024-03-11T14:14:15.374Z,7.88
2024-03-11T14:16:50.657Z,7.85
2024-03-11T14:19:21.846Z,6.55
2024-03-11T14:21:51.996Z,6.97
2024-03-11T14:24:21.840Z,6.90
2024-03-11T14:26:49.403Z,7.93
2024-03-11T14:29:17.260Z,7.25
2024-03-11T14:34:15.929Z,8.35
2024-03-11T14:36:45.431Z,5.95
2024-03-11T14:39:23.098Z,6.30
2024-03-11T14:41:50.639Z,6.32
2024-03-11T14:44:18.184Z,7.50
2024-03-11T14:46:57.011Z,9.55
2024-03-11T14:49:27.915Z,10.50
2024-03-11T14:51:56.720Z,11.15
2024-03-11T14:54:28.265Z,13.20
2024-03-11T14:56:58.291Z,10.02
2024-03-11T14:59:26.120Z,9.60
2024-03-11T15:01:58.341Z,12.20
2024-03-11T15:04:26.840Z,11.90
2024-03-11T15:06:55.050Z,9.10
2024-03-11T15:09:23.499Z,11.02
2024-03-11T15:11:55.834Z,8.00
2024-03-11T15:14:23.403Z,11.95
2024-03-11T15:16:57.057Z,8.75
2024-03-11T15:19:25.649Z,8.73
2024-03-11T15:21:53.417Z,9.52
2024-03-11T15:24:22.499Z,11.60
2024-03-11T15:26:50.225Z,11.45
2024-03-11T15:29:18.230Z,10.80
2024-03-11T15:31:46.340Z,9.80
2024-03-11T15:34:16.700Z,9.98
2024-03-11T15:36:44.305Z,8.38
2024-03-11T15:39:20.610Z,8.32
2024-03-11T15:41:48.301Z,9.05
2024-03-11T15:44:15.335Z,7.40
2024-03-11T15:46:43.176Z,10.15
2024-03-11T15:49:12.100Z,6.80
2024-03-11T15:51:40.637Z,5.72
2024-03-11T15:54:10.672Z,9.00
2024-03-11T15:56:38.643Z,6.97
2024-03-11T15:59:08.499Z,7.25
2024-03-11T16:01:37.359Z,6.25
2024-03-11T16:04:06.576Z,8.52
2024-03-11T16:06:35.322Z,7.53
2024-03-11T16:09:03.515Z,7.57
2024-03-11T16:11:37.128Z,7.60
2024-03-11T16:14:04.318Z,6.30
2024-03-11T16:16:32.063Z,5.63
2024-03-11T16:18:59.710Z,6.90
2024-03-11T16:21:34.197Z,5.82
2024-03-11T16:24:03.425Z,5.32
2024-03-11T16:26:36.207Z,6.65
2024-03-11T16:29:05.048Z,6.35
2024-03-11T16:31:34.821Z,5.95
2024-03-11T16:34:01.952Z,6.68
2024-03-11T16:36:34.487Z,7.22
2024-03-11T16:39:02.755Z,8.63
2024-03-11T16:41:31.115Z,7.00
2024-03-11T16:44:03.447Z,7.53
2024-03-11T16:46:36.826Z,7.07
2024-03-11T16:49:05.033Z,7.55
2024-03-11T16:51:33.589Z,6.05
2024-03-11T16:54:00.909Z,6.50
2024-03-11T16:56:33.404Z,6.60
2024-03-11T16:59:03.625Z,9.63
2024-03-11T17:01:34.836Z,6.25
2024-03-11T17:04:05.059Z,5.97
2024-03-11T17:06:33.212Z,3.80
2024-03-11T17:09:00.796Z,3.83
2024-03-11T17:11:29.589Z,3.83
2024-03-11T17:13:56.868Z,2.60
2024-03-11T17:16:27.480Z,2.42
2024-03-11T17:18:56.948Z,3.58
2024-03-11T17:21:28.136Z,3.20
2024-03-11T17:26:23.787Z,2.53
2024-03-11T17:28:52.065Z,2.75
2024-03-11T17:31:25.195Z,2.38
2024-03-11T17:33:52.811Z,2.55
2024-03-11T17:42:03.262Z,2.85
2024-03-11T17:44:31.178Z,3.38
2024-03-11T17:46:59.560Z,3.00
2024-03-11T17:49:28.560Z,3.42
2024-03-11T17:54:39.107Z,4.50
2024-03-11T17:57:07.279Z,4.72
2024-03-11T17:59:36.954Z,5.75
2024-03-11T18:02:06.728Z,6.13
2024-03-11T18:04:34.521Z,6.07
2024-03-11T18:07:01.644Z,6.22
2024-03-11T18:09:33.214Z,7.75
2024-03-11T18:12:04.878Z,6.30
2024-03-11T18:17:14.664Z,7.32
2024-03-11T18:19:42.382Z,8.43
2024-03-11T18:22:11.141Z,7.72
2024-03-11T18:27:06.798Z,7.47
2024-03-11T18:29:36.607Z,6.65
2024-03-11T18:32:11.231Z,6.72
2024-03-11T18:34:38.944Z,9.45
2024-03-11T18:37:12.554Z,7.35
2024-03-11T18:39:42.944Z,6.85
2024-03-11T18:42:13.370Z,7.32
2024-03-11T18:44:43.348Z,7.65
2024-03-11T18:49:56.525Z,8.18
2024-03-11T18:54:51.501Z,8.05
2024-03-11T18:57:18.784Z,8.55
2024-03-11T18:59:46.432Z,7.95
2024-03-11T19:02:15.552Z,9.15
2024-03-11T19:04:42.918Z,7.88
2024-03-11T19:07:13.580Z,6.80
2024-03-11T19:09:42.840Z,8.45
2024-03-11T19:12:10.010Z,10.00
2024-03-11T19:14:37.787Z,7.60
2024-03-11T19:17:05.668Z,6.57
2024-03-11T19:19:36.614Z,8.07
2024-03-11T19:22:05.737Z,9.10
2024-03-11T19:24:33.687Z,11.95
2024-03-11T19:27:04.370Z,10.68
2024-03-11T19:33:47.664Z,7.93
2024-03-11T19:36:19.356Z,7.60
2024-03-11T19:39:02.357Z,7.88
2024-03-11T19:42:15.545Z,8.50
2024-03-11T19:44:55.368Z,8.73
2024-03-11T19:48:10.435Z,10.75
2024-03-11T19:51:15.017Z,9.25
2024-03-11T19:54:04.484Z,10.80
2024-03-11T19:57:18.161Z,10.75
2024-03-11T20:00:35.747Z,9.85
2024-03-11T20:03:19.463Z,8.32
2024-03-11T20:06:35.265Z,8.75
2024-03-11T20:13:45.290Z,9.60
2024-03-11T20:16:52.496Z,7.65
2024-03-11T20:19:54.070Z,9.10
2024-03-11T20:26:43.695Z,9.95
2024-03-11T20:29:59.950Z,8.40
2024-03-11T20:33:07.449Z,9.00
2024-03-11T20:35:35.573Z,8.65
2024-03-11T20:38:04.457Z,7.68
2024-03-11T20:40:43.149Z,7.97
2024-03-11T20:43:12.846Z,8.90
2024-03-11T20:45:41.173Z,13.82
2024-03-11T20:48:09.541Z,9.35
2024-03-11T20:50:38.972Z,10.27
2024-03-11T20:53:11.809Z,13.38
2024-03-11T20:55:39.482Z,8.95
2024-03-11T20:58:07.282Z,10.18
2024-03-11T21:00:36.078Z,8.55
2024-03-11T21:03:03.993Z,13.18
2024-03-11T21:05:34.346Z,12.05
2024-03-11T21:08:03.704Z,9.25
2024-03-11T21:10:32.752Z,9.43
2024-03-11T21:13:00.559Z,12.07
2024-03-11T21:15:28.163Z,11.25
2024-03-11T21:17:55.553Z,12.32
2024-03-11T21:20:23.052Z,8.13
2024-03-11T21:22:53.649Z,11.88
2024-03-11T21:25:43.809Z,13.82
2024-03-11T21:28:12.989Z,9.73
2024-03-11T21:33:11.312Z,9.55
2024-03-11T21:35:38.745Z,7.10
2024-03-11T21:38:13.787Z,7.20
2024-03-11T21:40:49.859Z,7.70
2024-03-11T21:43:19.286Z,6.90
2024-03-11T21:45:47.097Z,9.40
2024-03-11T21:48:16.698Z,7.68
2024-03-11T21:50:47.018Z,6.40
2024-03-11T21:53:14.712Z,6.97
2024-03-11T21:55:48.379Z,7.38
2024-03-11T21:58:20.346Z,6.88
2024-03-11T22:00:48.105Z,8.02
2024-03-11T22:03:15.212Z,5.78
2024-03-11T22:05:42.760Z,6.68
2024-03-11T22:08:10.782Z,6.97
2024-03-11T22:10:39.396Z,6.25
2024-03-11T22:13:06.733Z,7.88
2024-03-11T22:15:34.462Z,5.95
2024-03-11T22:18:02.426Z,5.78
2024-03-11T22:20:30.709Z,5.82
2024-03-11T22:22:59.387Z,7.88
2024-03-11T22:25:28.379Z,6.18
2024-03-11T22:27:55.890Z,6.68
2024-03-11T22:30:24.823Z,9.10
2024-03-11T22:32:52.140Z,7.40
2024-03-11T22:35:20.028Z,6.78
2024-03-11T22:37:48.051Z,6.10
2024-03-11T22:40:17.494Z,5.80
2024-03-11T22:42:48.820Z,5.85
2024-03-11T22:45:17.491Z,7.50
2024-03-11T22:47:45.074Z,7.05
2024-03-11T22:50:12.519Z,5.38
2024-03-11T22:52:39.900Z,4.15
2024-03-11T22:55:10.442Z,7.97
2024-03-11T22:57:38.430Z,5.72
2024-03-11T23:00:26.323Z,7.40
2024-03-11T23:02:55.264Z,6.93
2024-03-11T23:05:22.847Z,7.30
2024-03-11T23:07:50.159Z,7.28
2024-03-11T23:10:18.259Z,5.63
2024-03-11T23:12:45.774Z,6.35
2024-03-11T23:15:15.553Z,6.97
2024-03-11T23:17:42.806Z,5.53
2024-03-11T23:20:11.297Z,7.53
2024-03-11T23:22:38.979Z,5.93
2024-03-11T23:25:07.762Z,6.95
2024-03-11T23:27:35.029Z,5.93
2024-03-11T23:30:02.636Z,7.15
2024-03-11T23:32:29.786Z,7.38
2024-03-11T23:34:57.426Z,6.03
2024-03-11T23:37:24.504Z,6.68
2024-03-11T23:39:52.164Z,5.43
2024-03-11T23:42:19.329Z,5.60
2024-03-11T23:44:46.960Z,6.28
2024-03-11T23:47:16.472Z,5.78
2024-03-11T23:49:46.082Z,5.93
2024-03-11T23:52:17.344Z,5.95
2024-03-11T23:54:45.928Z,4.68
2024-03-11T23:57:13.933Z,5.88
2024-03-11T23:59:42.846Z,5.68
